Frazer, MT (59225)

4:05 AM MST on November 28, 2014 (GMT -0700)
Downtown | Change Station
CLOSE
Current Station
Personal Weather Station
Location: Wolf Point, MT
Elevation: 2001 ft
Nearby Weather Stations

Elev 2001 ft 48.09 °N, 105.64 °W | Updated 2 minutes ago

Mostly Cloudy
Mostly Cloudy
18.3 °F
Feels Like 9 °F
N
7.0
Wind Variable Wind from East
Gusts 11.6 mph

Today
High -- | Low -- °F
--% Chance of Precip.
Yesterday
High -- | Low -- °F
Precip. -- in
7:29 AM 4:14 PM
Waxing Crescent, 39% visible
Pressure 29.78 in
Visibility 8.0 miles
Clouds Overcast 700 ft
Windchill 9 °F
Dew Point 12 °F
Humidity 77%
Rainfall -999.00 in
Snow Depth Not available.
UV 0 out of 12
Pollen .10 out of 12
Air Quality Not available.
Flu Activity Not available.
METAR KOLF 281053Z AUTO 07011KT 8SM OVC007 M07/M09 A2969 RMK AO2 SLP082 T10671089

More Conditions Fewer Conditions

Pressure 29.78 in
Visibility 8.0 miles
Clouds Overcast 700 ft
Windchill 9 °F
Dew Point 12 °F
Humidity 77%
Rainfall -999.00 in
Snow Depth Not available.
UV 0 out of 12
Pollen .10 out of 12
Air Quality Not available.
Flu Activity Not available.
METAR KOLF 281053Z AUTO 07011KT 8SM OVC007 M07/M09 A2969 RMK AO2 SLP082 T10671089

More Conditions Fewer Conditions

10-Day Weather Forecast

Almanac

Astronomy

Nov. 28, 2014 Rise Set
Actual Time
Civil Twilight
Nautical Twilight
Astronomical Twilight
Moon
Length of Visible Light
Length of Day
Tomorrow will be .
, % of the Moon is Illuminated

Today's Extremes

State Highs State Lows

Community

WunderPhotos

Upload Photos

1,774,192 photos uploaded!

WunderBlogs® & News

Nearby

Air Quality

  Air Quality AQ Index Pollutant
Not available.

Snow Depth

Station Depth Elevation

Earthquake Activity

City Distance Mag. Time & Date
Minimum magnitude displayed is 2.5.

Coastal Water Temperatures

Place Temperature

Nearby Weather Stations